Richview, IL (62877)

7:47 AM CDT on March 30, 2017 (GMT -0500)
Bill's Back Yard | | Change Station

Elev 499 ft 38.33 °N, 89.11 °W | Updated 14 seconds ago

Rain
Rain
64.4 °F
Feels Like 64.4 °F
N
1.0
Wind Variable Wind from WSW
Gusts 12.0 mph

Today
High -- | Low -- °F
--% Chance of Precip.
Yesterday
High -- | Low -- °F
Precip. -- in
Pressure 29.63 in
Visibility 10.0 miles
Clouds Scattered Clouds 3600 ft
Mostly Cloudy 7000 ft
Overcast 8000 ft
Dew Point 58 °F
Humidity 80%
Rainfall 0.20 in
Snow Depth Not available.
6:44 AM 7:18 PM
Waxing Crescent, 8% visible
METAR KENL 301235Z AUTO 19010KT 10SM VCTS SCT036 BKN070 OVC080 18/15 A2963 RMK AO2 LTG DSNT W THRU N T01750152
Pressure 29.63 in
Visibility 10.0 miles
Clouds Scattered Clouds 3600 ft
Mostly Cloudy 7000 ft
Overcast 8000 ft
Dew Point 58 °F
Humidity 80%
Rainfall 0.20 in
Snow Depth Not available.
6:44 AM 7:18 PM
Waxing Crescent, 8% visible
METAR KENL 301235Z AUTO 19010KT 10SM VCTS SCT036 BKN070 OVC080 18/15 A2963 RMK AO2 LTG DSNT W THRU N T01750152

Get Severe Weather Alerts

Thanks for signing up!

Be on the lookout for a verification email in your inbox.

You'll start receiving the daily forecast at 8 AM.

×

10-Day Weather Forecast

Almanac

Astronomy

Mar. 30, 2017 Rise Set
Actual Time
Civil Twilight
Nautical Twilight
Astronomical Twilight
Moon
Length of Visible Light
Length of Day
Tomorrow will be .
, % of the Moon is Illuminated

Today's Extremes

State Highs State Lows

Community

WunderPhotos

Upload Photos

1,962,540 photos uploaded!

WunderBlog® & News

Nearby

Air Quality

  Air Quality AQ Index Pollutant
Not available.

Snow Depth

Station Depth Elevation

Earthquake Activity

City Distance Mag. Time & Date
Minimum magnitude displayed is 2.5.

Earthquake Activity

City Distance Mag. Time & Date
Minimum magnitude displayed is 2.5.

Coastal Water Temperatures

Place Temperature

Stations

Nearby Weather Stations

Station Location Temp. Windchill Dew Point Humidity Wind Precip. Elev Updated Type
                   

Watches & Warnings

There are currently no watches in effect.